Time;durP1;ratioP1;P1;durP2;ratioP2;P2;SDS_P1;SDS_P2;PMS_P1;PMS_P2;Temp;Humidity;BMP_temperature;BMP_pressure;BME280_temperature;BME280_humidity;BME280_pressure;Samples;Min_cycle;Max_cycle;Signal;HPM_P1;HPM_P2
2023/09/11 00:01:25;;;;;;;0.53;0.40;;;;;;;18.45;99.38;100186.75;5007528;28;20489;-50
2023/09/11 00:03:52;;;;;;;0.50;0.20;;;;;;;18.45;99.22;100186.75;5004874;28;20491;-50
2023/09/11 00:06:19;;;;;;;0.50;0.20;;;;;;;18.47;98.96;100176.75;5000497;28;20452;-50
2023/09/11 00:08:45;;;;;;;0.50;0.20;;;;;;;18.54;98.73;100170.03;5003529;28;20492;-50
2023/09/11 00:11:12;;;;;;;0.50;0.20;;;;;;;18.45;99.17;100176.84;5007123;28;20947;-50
2023/09/11 00:13:42;;;;;;;0.50;0.20;;;;;;;18.36;99.08;100172.03;5001178;28;20453;-50
2023/09/11 00:16:08;;;;;;;0.50;0.20;;;;;;;18.21;99.28;100168.47;5007420;28;20544;-50
2023/09/11 00:18:35;;;;;;;0.50;0.20;;;;;;;18.19;100.00;100174.91;5004769;28;20452;-49
2023/09/11 00:21:01;;;;;;;0.50;0.20;;;;;;;18.10;100.00;100173.66;5000145;28;20492;-50
2023/09/11 00:23:27;;;;;;;0.50;0.20;;;;;;;18.18;100.00;100165.97;5004282;28;20453;-49
2023/09/11 00:25:54;;;;;;;0.50;0.20;;;;;;;18.21;99.74;100167.59;5000467;28;20459;-50
2023/09/11 00:28:20;;;;;;;0.60;0.53;;;;;;;18.05;100.00;100168.56;5002656;28;20460;-50
2023/09/11 00:30:47;;;;;;;0.40;0.20;;;;;;;17.98;100.00;100172.59;5006791;28;20935;-49
2023/09/11 00:33:13;;;;;;;0.50;0.20;;;;;;;18.03;100.00;100162.41;5004922;28;20543;-50
2023/09/11 00:35:44;;;;;;;0.50;0.20;;;;;;;18.00;100.00;100164.44;5000223;28;20969;-50
2023/09/11 00:38:11;;;;;;;11.77;5.87;;;;;;;17.94;100.00;100152.19;5001503;28;20943;-50
2023/09/11 00:40:37;;;;;;;0.50;0.20;;;;;;;17.98;100.00;100167.22;5006833;28;20503;-50
2023/09/11 00:43:03;;;;;;;0.50;0.20;;;;;;;17.89;100.00;100154.31;5005648;28;20524;-49
2023/09/11 00:45:30;;;;;;;0.50;0.20;;;;;;;17.87;100.00;100160.75;4999557;28;20452;-50
2023/09/11 00:47:59;;;;;;;0.50;0.27;;;;;;;18.04;100.00;100156.06;5013274;28;20551;-50
2023/09/11 00:50:26;;;;;;;0.50;0.20;;;;;;;18.16;100.00;100154.44;5000158;28;20474;-50
2023/09/11 00:52:53;;;;;;;0.50;0.20;;;;;;;18.21;99.56;100148.75;5000668;28;20540;-50
2023/09/11 00:55:21;;;;;;;0.50;0.20;;;;;;;18.25;99.43;100153.00;5019837;28;20450;-50
2023/09/11 00:57:49;;;;;;;0.50;0.20;;;;;;;18.25;99.51;100150.31;5017613;28;20543;-50
2023/09/11 01:00:15;;;;;;;0.50;0.20;;;;;;;18.26;99.58;100147.53;5000586;28;20579;-50
2023/09/11 01:02:42;;;;;;;0.50;0.20;;;;;;;18.12;99.47;100147.53;4999491;28;20877;-50
2023/09/11 01:05:09;;;;;;;0.50;0.20;;;;;;;18.04;100.00;100142.63;5005497;28;20453;-50
2023/09/11 01:07:35;;;;;;;0.97;0.97;;;;;;;17.99;100.00;100143.88;5006796;28;20456;-50
2023/09/11 01:10:05;;;;;;;0.50;0.20;;;;;;;17.87;100.00;100144.63;5000993;28;20867;-50
2023/09/11 01:12:36;;;;;;;0.50;0.20;;;;;;;17.75;100.00;100143.53;4999552;28;20449;-50
2023/09/11 01:15:07;;;;;;;0.50;0.20;;;;;;;17.86;100.00;100134.81;5003418;28;21000;-50
2023/09/11 01:18:10;;;;;;;0.50;0.20;;;;;;;17.75;100.00;100143.53;5006405;28;20457;-50
2023/09/11 01:20:54;;;;;;;0.50;0.20;;;;;;;17.73;100.00;100142.75;4984188;28;20488;-50
2023/09/11 01:23:50;;;;;;;0.50;0.20;;;;;;;17.68;100.00;100128.69;5003428;28;20811;-50
2023/09/11 01:26:50;;;;;;;0.50;0.20;;;;;;;17.70;100.00;100132.19;5001139;28;20445;-50
2023/09/11 01:29:20;;;;;;;0.60;0.60;;;;;;;17.72;100.00;100138.34;4999532;28;20491;-50
2023/09/11 01:31:47;;;;;;;0.50;0.20;;;;;;;17.51;100.00;100142.28;5011277;28;20461;-50
2023/09/11 01:34:13;;;;;;;0.50;0.20;;;;;;;17.52;100.00;100147.56;4999476;28;20934;-49
2023/09/11 01:36:40;;;;;;;0.50;0.20;;;;;;;17.54;100.00;100144.78;4999209;28;21007;-49
2023/09/11 01:39:07;;;;;;;0.50;0.30;;;;;;;17.46;100.00;100140.75;4999491;28;20564;-50
2023/09/11 01:41:39;;;;;;;0.50;0.20;;;;;;;17.41;100.00;100141.97;4998991;28;20559;-50
2023/09/11 01:44:14;;;;;;;0.50;0.20;;;;;;;17.43;100.00;100146.31;5005039;28;20449;-50
2023/09/11 01:46:44;;;;;;;0.50;0.20;;;;;;;17.59;100.00;100140.00;5007665;28;20562;-50
2023/09/11 01:49:11;;;;;;;0.40;0.20;;;;;;;17.52;100.00;100141.31;5003150;28;20512;-50
2023/09/11 01:51:39;;;;;;;1.27;1.27;;;;;;;17.38;100.00;100140.31;5006033;28;20449;-50
2023/09/11 01:54:07;;;;;;;0.50;0.20;;;;;;;17.44;100.00;100145.34;5005698;28;20459;-50
2023/09/11 01:56:35;;;;;;;0.40;0.20;;;;;;;17.45;100.00;100144.38;5025448;28;20444;-50
2023/09/11 01:59:02;;;;;;;0.50;0.20;;;;;;;17.40;100.00;100150.97;5001549;28;20485;-50
2023/09/11 02:01:28;;;;;;;0.40;0.20;;;;;;;17.48;100.00;100141.50;5005774;28;20496;-50
2023/09/11 02:03:54;;;;;;;0.40;0.20;;;;;;;17.29;100.00;100140.88;5003498;28;20452;-50
2023/09/11 02:06:21;;;;;;;0.50;0.20;;;;;;;17.28;100.00;100140.97;4999032;28;20449;-50
2023/09/11 02:08:48;;;;;;;0.40;0.20;;;;;;;17.20;100.00;100133.34;5010620;28;21021;-50
2023/09/11 02:11:14;;;;;;;0.50;0.20;;;;;;;17.20;100.00;100137.84;5010723;28;20448;-50
2023/09/11 02:13:41;;;;;;;0.47;0.20;;;;;;;17.21;100.00;100135.06;5005215;28;20453;-50
2023/09/11 02:16:07;;;;;;;0.50;0.20;;;;;;;17.26;99.96;100130.28;5002975;28;20452;-50
2023/09/11 02:18:34;;;;;;;1.27;1.17;;;;;;;17.12;100.00;100146.34;5004560;28;20989;-50
2023/09/11 02:21:00;;;;;;;0.40;0.20;;;;;;;17.20;100.00;100137.84;5009608;28;20496;-50
2023/09/11 02:23:26;;;;;;;0.40;0.20;;;;;;;17.21;100.00;100140.44;5008155;28;20463;-50
2023/09/11 02:25:53;;;;;;;0.40;0.20;;;;;;;17.04;100.00;100138.75;5003435;28;20564;-50
2023/09/11 02:28:20;;;;;;;0.50;0.20;;;;;;;16.91;100.00;100139.53;5004959;28;20480;-50
2023/09/11 02:30:46;;;;;;;0.40;0.20;;;;;;;16.90;100.00;100138.66;5014121;28;20482;-49
2023/09/11 02:33:13;;;;;;;0.40;0.20;;;;;;;16.84;100.00;100139.88;5016094;28;20452;-49
2023/09/11 02:35:39;;;;;;;0.40;0.20;;;;;;;16.88;100.00;100132.53;4997792;28;20472;-50
2023/09/11 02:38:06;;;;;;;0.43;0.20;;;;;;;16.93;100.00;100135.81;4999448;28;20514;-50
2023/09/11 02:40:36;;;;;;;0.40;0.20;;;;;;;16.65;100.00;100132.91;4997487;28;20484;-50
2023/09/11 02:43:03;;;;;;;0.50;0.20;;;;;;;16.75;100.00;100132.34;4996341;28;20450;-49
2023/09/11 02:45:29;;;;;;;0.40;0.20;;;;;;;16.68;100.00;100130.94;5001198;28;20539;-50
2023/09/11 02:47:55;;;;;;;0.40;0.20;;;;;;;16.73;100.00;100122.66;5027478;28;20825;-50
2023/09/11 02:50:23;;;;;;;0.50;0.20;;;;;;;16.70;100.00;100129.03;5003042;28;20464;-49
2023/09/11 02:52:49;;;;;;;0.50;0.20;;;;;;;16.76;100.00;100133.22;5002534;28;20878;-50
2023/09/11 02:55:16;;;;;;;0.40;0.20;;;;;;;16.63;100.00;100129.47;5021509;28;20454;-50
2023/09/11 02:57:42;;;;;;;0.50;0.20;;;;;;;16.52;100.00;100130.06;5008647;28;20493;-50
2023/09/11 03:00:09;;;;;;;0.50;0.20;;;;;;;16.63;100.00;100126.78;5012479;28;20464;-49
2023/09/11 03:02:36;;;;;;;0.50;0.20;;;;;;;16.55;100.00;100119.13;5015262;28;20526;-49
2023/09/11 03:05:03;;;;;;;0.50;0.40;;;;;;;16.52;100.00;100122.00;5015307;28;20486;-50
2023/09/11 03:07:29;;;;;;;0.50;0.20;;;;;;;16.61;100.00;100116.13;5001184;28;21188;-49
2023/09/11 03:09:55;;;;;;;0.43;0.20;;;;;;;16.55;100.00;100122.69;5006234;28;20487;-49
2023/09/11 03:12:22;;;;;;;0.50;0.20;;;;;;;16.69;100.00;100115.72;5008658;28;20555;-49
2023/09/11 03:14:54;;;;;;;0.40;0.20;;;;;;;16.65;100.00;100119.50;5003201;28;20453;-50
2023/09/11 03:17:20;;;;;;;0.40;0.20;;;;;;;16.64;100.00;100117.78;5012854;28;20452;-50
2023/09/11 03:19:47;;;;;;;0.40;0.20;;;;;;;16.70;100.00;100112.94;5004229;28;20472;-50
2023/09/11 03:22:13;;;;;;;0.40;0.20;;;;;;;16.64;100.00;100112.41;4999349;28;20579;-50
2023/09/11 03:24:40;;;;;;;0.40;0.20;;;;;;;16.61;100.00;100117.94;5001731;28;20453;-50
2023/09/11 03:27:06;;;;;;;0.40;0.20;;;;;;;16.54;100.00;100118.28;5008364;28;20463;-48
2023/09/11 03:29:32;;;;;;;0.50;0.20;;;;;;;16.50;100.00;100119.41;5004289;28;20985;-48
2023/09/11 03:31:59;;;;;;;0.50;0.20;;;;;;;16.60;100.00;100114.41;5012033;28;21149;-48
2023/09/11 03:34:25;;;;;;;0.50;0.20;;;;;;;16.42;100.00;100112.72;5004628;28;20508;-48
2023/09/11 03:36:52;;;;;;;0.40;0.20;;;;;;;16.43;100.00;100115.31;5002524;28;20942;-48
2023/09/11 03:39:18;;;;;;;0.40;0.20;;;;;;;16.27;100.00;100111.75;5008270;28;20559;-48
2023/09/11 03:41:45;;;;;;;0.50;0.20;;;;;;;16.34;100.00;100110.47;5000956;28;20994;-48
2023/09/11 03:44:12;;;;;;;0.40;0.20;;;;;;;16.32;100.00;100107.03;5005040;28;20464;-48
2023/09/11 03:46:38;;;;;;;0.40;0.20;;;;;;;16.22;100.00;100106.66;5009782;28;20539;-49
2023/09/11 03:49:04;;;;;;;0.50;0.20;;;;;;;16.25;100.00;100113.66;5004679;28;20911;-48
2023/09/11 03:51:31;;;;;;;0.50;0.30;;;;;;;16.10;100.00;100106.44;5000162;28;20546;-49
2023/09/11 03:53:58;;;;;;;0.40;0.20;;;;;;;16.17;100.00;100103.38;5004488;28;20483;-48
2023/09/11 03:56:25;;;;;;;0.40;0.20;;;;;;;16.04;100.00;100102.31;5026490;28;20791;-49
2023/09/11 03:58:51;;;;;;;12.07;7.90;;;;;;;16.07;100.00;100101.25;5004549;28;20485;-48
2023/09/11 04:01:18;;;;;;;0.50;0.20;;;;;;;16.13;100.00;100101.78;5007553;28;20919;-49
2023/09/11 04:03:44;;;;;;;0.50;0.20;;;;;;;16.13;100.00;100101.78;5004307;28;20452;-49
2023/09/11 04:06:11;;;;;;;0.40;0.20;;;;;;;16.04;100.00;100110.34;5000384;28;20543;-48
2023/09/11 04:08:37;;;;;;;0.40;0.30;;;;;;;16.09;100.00;100100.22;5013745;28;20890;-49
2023/09/11 04:11:04;;;;;;;0.40;0.20;;;;;;;16.10;100.00;100106.44;5009590;28;20457;-48
2023/09/11 04:13:30;;;;;;;0.47;0.23;;;;;;;16.07;100.00;100099.44;5001715;28;20536;-48
2023/09/11 04:15:57;;;;;;;0.40;0.20;;;;;;;16.16;100.00;100104.28;5006716;28;20453;-48
2023/09/11 04:18:23;;;;;;;0.40;0.20;;;;;;;15.99;100.00;100104.34;5004438;28;20448;-48
2023/09/11 04:20:50;;;;;;;0.40;0.20;;;;;;;15.91;100.00;100104.78;5012642;28;20484;-48
2023/09/11 04:23:16;;;;;;;0.40;0.20;;;;;;;15.81;100.00;100103.53;5003116;28;20485;-48
2023/09/11 04:25:44;;;;;;;0.40;0.20;;;;;;;15.66;100.00;100098.97;5007019;28;20903;-48
2023/09/11 04:28:10;;;;;;;0.40;0.20;;;;;;;15.69;100.00;100096.13;5004834;28;20941;-48
2023/09/11 04:30:37;;;;;;;0.40;0.20;;;;;;;15.62;100.00;100098.28;4995928;28;20504;-48
2023/09/11 04:33:04;;;;;;;0.43;0.20;;;;;;;15.75;100.00;100095.78;5004612;28;20468;-48
2023/09/11 04:35:30;;;;;;;0.40;0.20;;;;;;;15.80;100.00;100090.22;4995206;28;21039;-49
2023/09/11 04:37:57;;;;;;;0.40;0.20;;;;;;;15.84;100.00;100091.75;5005221;28;20495;-48
2023/09/11 04:40:23;;;;;;;0.40;0.20;;;;;;;15.88;100.00;100086.16;5008462;28;20552;-48
2023/09/11 04:42:49;;;;;;;0.40;0.20;;;;;;;15.93;100.00;100086.78;5004843;28;20481;-48
2023/09/11 04:45:16;;;;;;;0.63;0.63;;;;;;;15.94;100.00;100093.88;4997404;28;20599;-48
2023/09/11 04:47:42;;;;;;;0.87;0.87;;;;;;;16.04;100.00;100090.72;5010351;28;20946;-48
2023/09/11 04:50:09;;;;;;;0.40;0.20;;;;;;;16.23;100.00;100091.44;5006952;28;20473;-49
2023/09/11 04:52:35;;;;;;;0.40;0.20;;;;;;;16.26;100.00;100097.47;5013356;28;20441;-48
2023/09/11 04:55:02;;;;;;;0.40;0.20;;;;;;;16.19;100.00;100100.59;5007731;28;20534;-48
2023/09/11 04:57:28;;;;;;;0.40;0.20;;;;;;;16.19;100.00;100105.97;5018417;28;20912;-49
2023/09/11 04:59:55;;;;;;;0.40;0.20;;;;;;;16.21;100.00;100102.25;5003592;28;20471;-48
2023/09/11 05:02:21;;;;;;;0.50;0.50;;;;;;;16.15;100.00;100102.56;5012222;28;20551;-49
2023/09/11 05:04:48;;;;;;;0.40;0.20;;;;;;;16.21;100.00;100104.06;5003948;28;20541;-50
2023/09/11 05:07:15;;;;;;;0.40;0.20;;;;;;;16.53;100.00;100107.63;5001757;28;20508;-51
2023/09/11 05:09:41;;;;;;;0.40;0.20;;;;;;;17.16;97.90;100110.31;5010665;28;20504;-47
2023/09/11 05:12:08;;;;;;;0.40;0.20;;;;;;;17.47;97.01;100109.34;5002073;28;20445;-47
2023/09/11 05:14:35;;;;;;;0.40;0.20;;;;;;;17.14;97.20;100107.72;4999812;28;20448;-48
2023/09/11 05:17:01;;;;;;;0.40;0.20;;;;;;;17.42;97.21;100108.78;5000947;28;20449;-48
2023/09/11 05:19:28;;;;;;;0.40;0.20;;;;;;;16.81;99.11;100110.50;4998618;28;20480;-48
2023/09/11 05:21:54;;;;;;;0.93;0.87;;;;;;;16.91;99.52;100110.00;5004324;28;20485;-48
2023/09/11 05:24:20;;;;;;;0.50;0.30;;;;;;;17.20;98.98;100106.47;4999527;28;20487;-48
2023/09/11 05:26:47;;;;;;;0.40;0.20;;;;;;;17.40;97.50;100113.34;5005165;28;20914;-48
2023/09/11 05:29:13;;;;;;;0.40;0.20;;;;;;;17.56;96.65;100108.81;4999197;28;20821;-48
2023/09/11 05:31:40;;;;;;;0.40;0.20;;;;;;;17.70;96.03;100105.31;5011205;28;20453;-48
2023/09/11 05:34:06;;;;;;;0.40;0.20;;;;;;;17.62;96.67;100100.34;5002029;28;20448;-49
2023/09/11 05:36:33;;;;;;;0.40;0.20;;;;;;;17.79;96.04;100109.25;5005770;28;20456;-48
2023/09/11 05:39:00;;;;;;;0.40;0.20;;;;;;;17.84;96.35;100108.03;4998149;28;20504;-48
2023/09/11 05:41:26;;;;;;;0.40;0.20;;;;;;;17.89;96.04;100110.41;5005462;28;20997;-48
2023/09/11 05:43:53;;;;;;;0.40;0.20;;;;;;;17.88;96.37;100106.88;5009454;28;21023;-49
2023/09/11 05:46:19;;;;;;;0.40;0.20;;;;;;;17.80;96.74;100101.09;5011759;28;20957;-50
2023/09/11 05:48:46;;;;;;;0.40;0.20;;;;;;;17.94;96.65;100119.91;5008355;28;20477;-49
2023/09/11 05:51:13;;;;;;;0.40;0.20;;;;;;;18.24;95.06;100122.56;5009873;28;20507;-49
2023/09/11 05:53:40;;;;;;;0.40;0.20;;;;;;;17.97;95.58;100129.66;5002992;28;20502;-48
2023/09/11 05:56:07;;;;;;;0.40;0.20;;;;;;;18.12;95.75;100126.00;5029489;28;20451;-49
2023/09/11 05:58:33;;;;;;;0.40;0.20;;;;;;;18.11;96.89;100135.03;5015108;28;20460;-49
2023/09/11 06:01:00;;;;;;;0.40;0.20;;;;;;;18.04;96.90;100131.84;5010214;28;20567;-48
2023/09/11 06:03:26;;;;;;;0.40;0.20;;;;;;;17.94;97.63;100130.69;5004048;28;20535;-50
2023/09/11 06:05:53;;;;;;;6.93;4.73;;;;;;;17.89;97.80;100130.09;5002157;28;20460;-49
2023/09/11 06:08:20;;;;;;;0.40;0.20;;;;;;;17.92;97.89;100134.44;5014458;28;20507;-49
2023/09/11 06:10:46;;;;;;;0.40;0.20;;;;;;;18.02;98.42;100133.78;5014898;28;20452;-48
2023/09/11 06:13:13;;;;;;;0.40;0.20;;;;;;;17.99;98.72;100139.34;5003992;28;20551;-48
2023/09/11 06:15:39;;;;;;;0.40;0.20;;;;;;;18.03;98.33;100134.63;5016307;28;20447;-48
2023/09/11 06:18:07;;;;;;;0.40;0.20;;;;;;;18.14;98.23;100147.44;5008466;28;20536;-48
2023/09/11 06:20:34;;;;;;;0.40;0.20;;;;;;;18.16;98.92;100140.13;5009380;28;20921;-48
2023/09/11 06:23:02;;;;;;;0.40;0.30;;;;;;;18.23;99.09;100146.88;5004305;28;20499;-48
2023/09/11 06:25:28;;;;;;;0.40;0.20;;;;;;;18.29;98.68;100141.09;5000858;28;20459;-48
2023/09/11 06:27:56;;;;;;;0.40;0.20;;;;;;;18.29;98.54;100143.78;4996698;28;20492;-49
2023/09/11 06:30:23;;;;;;;0.40;0.20;;;;;;;18.35;98.54;100140.69;5009126;28;21030;-48
2023/09/11 06:32:49;;;;;;;0.50;0.30;;;;;;;18.44;98.36;100145.50;5005165;28;20866;-48
2023/09/11 06:35:17;;;;;;;0.40;0.20;;;;;;;18.41;98.17;100143.00;5002691;28;20449;-48
2023/09/11 06:37:43;;;;;;;0.40;0.20;;;;;;;18.43;98.19;100141.09;5006825;28;20509;-48
2023/09/11 06:40:10;;;;;;;0.40;0.20;;;;;;;18.53;98.43;100138.69;4999420;28;20577;-48
2023/09/11 06:42:37;;;;;;;0.40;0.20;;;;;;;18.44;99.00;100150.03;4996078;28;20531;-49
2023/09/11 06:45:04;;;;;;;0.40;0.20;;;;;;;18.78;98.72;100143.41;5011428;28;20455;-48
2023/09/11 06:47:31;;;;;;;0.40;0.20;;;;;;;18.96;98.21;100138.63;5015412;28;21012;-49
2023/09/11 06:49:58;;;;;;;0.50;0.20;;;;;;;19.19;97.83;100138.84;5002311;28;20555;-48
2023/09/11 06:52:24;;;;;;;0.40;0.30;;;;;;;18.92;98.43;100140.66;5004708;28;20539;-48
2023/09/11 06:54:51;;;;;;;0.40;0.20;;;;;;;18.89;98.45;100147.09;5015987;28;20562;-48
2023/09/11 06:57:17;;;;;;;0.40;0.20;;;;;;;18.97;98.54;100140.34;5025218;28;20448;-49
2023/09/11 06:59:43;;;;;;;0.40;0.20;;;;;;;19.23;98.66;100134.09;4998248;28;20528;-48
2023/09/11 07:02:10;;;;;;;0.47;0.20;;;;;;;19.56;97.28;100136.38;5005545;28;20515;-49
2023/09/11 07:04:36;;;;;;;0.50;0.30;;;;;;;19.57;97.48;100146.19;5002014;28;20495;-48
2023/09/11 07:07:03;;;;;;;0.40;0.20;;;;;;;19.38;98.64;100137.59;5015118;28;20444;-49
2023/09/11 07:09:29;;;;;;;0.50;0.30;;;;;;;19.82;96.97;100140.84;5012542;28;21008;-48
2023/09/11 07:11:56;;;;;;;0.40;0.30;;;;;;;19.98;96.13;100137.06;5015198;28;20499;-49
2023/09/11 07:14:23;;;;;;;0.40;0.20;;;;;;;19.98;96.63;100137.06;5001818;28;20830;-49
2023/09/11 07:16:50;;;;;;;0.50;0.20;;;;;;;20.13;96.65;100133.28;5015285;28;20544;-49
2023/09/11 07:19:16;;;;;;;0.40;0.20;;;;;;;20.20;95.98;100131.91;5002101;28;20475;-49
2023/09/11 07:21:44;;;;;;;0.40;0.20;;;;;;;20.37;95.69;100131.56;5003984;28;20547;-49
2023/09/11 07:24:11;;;;;;;0.40;0.20;;;;;;;20.17;95.60;100128.56;5008187;28;20450;-49
2023/09/11 07:26:38;;;;;;;0.50;0.20;;;;;;;20.13;96.76;100131.44;5006552;28;20503;-49
2023/09/11 07:29:05;;;;;;;0.50;0.30;;;;;;;20.41;96.46;100133.09;5010008;28;20516;-49
2023/09/11 07:31:32;;;;;;;0.40;0.30;;;;;;;20.13;96.82;100131.44;5006636;28;20453;-49
2023/09/11 07:33:59;;;;;;;0.50;0.20;;;;;;;20.11;97.83;100130.69;4996416;28;20460;-50
2023/09/11 07:36:27;;;;;;;0.50;0.30;;;;;;;20.18;98.05;100136.53;4994961;28;20512;-49
2023/09/11 07:38:53;;;;;;;0.40;0.20;;;;;;;20.50;96.69;100136.09;5008109;28;20532;-51
2023/09/11 07:41:20;;;;;;;1.53;1.27;;;;;;;21.06;95.15;100131.06;5006942;28;20452;-50
2023/09/11 07:43:50;;;;;;;0.50;0.30;;;;;;;21.24;92.79;100132.38;4995794;28;20536;-50
2023/09/11 07:46:24;;;;;;;0.50;0.20;;;;;;;21.19;93.47;100134.59;5000718;28;20444;-50
2023/09/11 07:48:51;;;;;;;0.43;0.30;;;;;;;21.64;92.11;100122.13;5014233;28;20464;-50
2023/09/11 07:51:18;;;;;;;0.50;0.30;;;;;;;21.31;92.54;100128.28;5001339;28;20446;-50
2023/09/11 07:53:44;;;;;;;0.50;0.20;;;;;;;21.49;93.35;100131.44;5014528;28;20452;-49
2023/09/11 07:56:12;;;;;;;0.50;0.30;;;;;;;21.41;93.31;100137.44;5027207;28;20439;-49
2023/09/11 07:58:39;;;;;;;0.50;0.20;;;;;;;21.81;92.03;100135.25;5006501;28;20492;-49
2023/09/11 08:01:06;;;;;;;0.50;0.20;;;;;;;21.64;92.27;100138.38;5007319;28;20448;-50
2023/09/11 08:03:34;;;;;;;0.50;0.30;;;;;;;21.82;92.16;100141.53;5002495;28;20565;-49
2023/09/11 08:06:04;;;;;;;0.50;0.30;;;;;;;21.98;91.00;100125.81;5001099;28;20450;-49
2023/09/11 08:08:31;;;;;;;0.50;0.20;;;;;;;22.07;90.17;100137.78;5011951;28;20449;-49
2023/09/11 08:10:57;;;;;;;0.50;0.20;;;;;;;22.01;90.33;100138.22;5010506;28;20471;-47
2023/09/11 08:13:24;;;;;;;0.50;0.30;;;;;;;22.47;89.22;100138.16;4994396;28;20424;-48
2023/09/11 08:15:51;;;;;;;0.50;0.30;;;;;;;22.26;89.88;100137.19;5007507;28;20835;-48
2023/09/11 08:18:18;;;;;;;0.50;0.30;;;;;;;22.41;89.72;100135.97;5003305;28;20435;-49
2023/09/11 08:20:49;;;;;;;0.50;0.20;;;;;;;22.87;87.12;100140.38;5000680;28;20423;-49
2023/09/11 08:23:16;;;;;;;0.50;0.20;;;;;;;22.78;87.36;100133.84;5013642;28;21002;-48
2023/09/11 08:25:42;;;;;;;0.50;0.20;;;;;;;22.77;86.38;100129.41;5000627;28;20428;-53
2023/09/11 08:28:09;;;;;;;0.50;0.20;;;;;;;23.35;85.06;100136.31;5003359;28;20463;-51
2023/09/11 08:30:35;;;;;;;1.03;1.03;;;;;;;23.09;84.37;100136.78;5006794;28;20448;-50
2023/09/11 08:33:04;;;;;;;0.50;0.20;;;;;;;23.02;86.03;100133.69;5004882;28;20434;-52
2023/09/11 08:35:31;;;;;;;0.50;0.20;;;;;;;23.47;84.49;100139.00;5000502;28;20431;-50
2023/09/11 08:37:58;;;;;;;0.50;0.20;;;;;;;23.55;84.15;100128.31;5005010;28;20495;-50
2023/09/11 08:40:30;;;;;;;0.50;0.30;;;;;;;23.62;84.06;100133.16;5008956;28;21001;-50
2023/09/11 08:42:58;;;;;;;0.57;0.57;;;;;;;23.56;83.18;100130.91;5005449;28;20517;-51
2023/09/11 08:45:26;;;;;;;0.50;0.20;;;;;;;24.02;82.88;100128.84;5000269;28;20454;-50
2023/09/11 08:47:56;;;;;;;0.50;0.30;;;;;;;24.27;82.03;100133.84;5013415;28;20431;-51
2023/09/11 08:50:32;;;;;;;0.50;0.30;;;;;;;24.34;81.34;100123.31;4999895;28;21339;-51
2023/09/11 08:52:59;;;;;;;0.50;0.20;;;;;;;24.43;80.67;100117.94;5000187;28;20450;-50
2023/09/11 08:55:28;;;;;;;0.50;0.30;;;;;;;24.50;80.35;100124.53;5020760;28;20795;-50
2023/09/11 08:57:59;;;;;;;0.50;0.30;;;;;;;24.47;80.63;100124.81;5016248;28;20431;-51
2023/09/11 09:00:27;;;;;;;0.50;0.30;;;;;;;24.33;80.49;100111.59;4993790;28;20466;-51
2023/09/11 09:02:54;;;;;;;0.50;0.20;;;;;;;24.45;79.88;100115.09;5006572;28;20536;-51
2023/09/11 09:05:22;;;;;;;0.50;0.20;;;;;;;24.85;79.83;100106.91;5003010;28;20423;-50
2023/09/11 09:07:50;;;;;;;0.50;0.30;;;;;;;24.70;81.11;100105.59;4999581;28;20442;-50
2023/09/11 09:10:18;;;;;;;0.50;0.20;;;;;;;24.94;79.49;100110.63;5012763;28;20903;-51
2023/09/11 09:12:45;;;;;;;2.30;2.20;;;;;;;25.04;79.27;100103.41;4999993;28;20455;-51
2023/09/11 09:15:14;;;;;;;0.50;0.23;;;;;;;24.95;78.67;100105.09;5002236;28;20424;-51
2023/09/11 09:17:40;;;;;;;0.50;0.30;;;;;;;24.65;79.85;100100.56;5006513;28;20459;-51
2023/09/11 09:20:08;;;;;;;0.50;0.30;;;;;;;24.70;79.69;100111.03;5004403;28;20459;-51
2023/09/11 09:22:35;;;;;;;0.50;0.20;;;;;;;24.94;79.24;100100.63;4999290;28;20580;-51
2023/09/11 09:25:02;;;;;;;0.50;0.20;;;;;;;24.94;79.13;100102.47;5001337;28;20541;-52
2023/09/11 09:27:35;;;;;;;0.50;0.20;;;;;;;25.53;78.18;100101.56;5006329;28;20428;-51
2023/09/11 09:30:03;;;;;;;0.50;0.30;;;;;;;25.69;77.52;100104.59;5005822;28;20439;-52
2023/09/11 09:32:32;;;;;;;0.50;0.20;;;;;;;25.58;77.49;100108.28;4999359;28;20494;-51
2023/09/11 09:34:59;;;;;;;0.50;0.30;;;;;;;25.30;77.67;100104.56;4999565;28;20444;-50
2023/09/11 09:37:26;;;;;;;0.50;0.27;;;;;;;25.67;77.82;100109.28;5005728;28;20428;-51
2023/09/11 09:39:52;;;;;;;41.30;9.00;;;;;;;25.64;78.03;100110.44;5010619;28;20447;-50
2023/09/11 09:42:19;;;;;;;0.50;0.20;;;;;;;25.80;75.78;100100.84;4999782;28;20558;-50
2023/09/11 09:44:52;;;;;;;0.50;0.20;;;;;;;25.74;74.62;100101.41;4999356;28;20835;-51
2023/09/11 09:47:21;;;;;;;0.50;0.30;;;;;;;25.91;75.02;100090.66;5012551;28;20430;-52
2023/09/11 09:49:49;;;;;;;0.50;0.30;;;;;;;26.02;75.00;100091.47;4998977;28;20443;-51
2023/09/11 09:52:25;;;;;;;0.50;0.30;;;;;;;26.45;74.49;100088.19;5003780;28;20478;-51
2023/09/11 09:54:58;;;;;;;0.70;0.70;;;;;;;26.44;74.05;100090.03;5012557;28;20423;-52
2023/09/11 09:57:27;;;;;;;0.50;0.20;;;;;;;26.70;73.56;100098.38;5021066;28;20424;-50
2023/09/11 09:59:58;;;;;;;0.50;0.20;;;;;;;26.98;72.31;100084.72;4994512;28;20469;-51
2023/09/11 10:02:32;;;;;;;0.77;0.77;;;;;;;27.28;70.79;100083.56;5005252;28;20546;-51
2023/09/11 10:05:08;;;;;;;1.27;0.87;;;;;;;27.33;69.83;100089.38;4999827;28;20451;-52
2023/09/11 10:07:38;;;;;;;0.60;0.60;;;;;;;27.27;70.01;100084.53;4999302;28;20453;-51
2023/09/11 10:10:23;;;;;;;0.50;0.30;;;;;;;27.44;70.33;100076.34;5012019;28;20851;-50
2023/09/11 10:12:53;;;;;;;0.50;0.30;;;;;;;27.35;69.75;100069.09;4998970;28;20459;-52
2023/09/11 10:15:21;;;;;;;0.80;0.80;;;;;;;27.42;68.96;100069.34;5000703;28;20434;-52
2023/09/11 10:17:52;;;;;;;0.50;0.43;;;;;;;27.62;68.44;100053.63;5005738;28;20456;-52
2023/09/11 10:20:19;;;;;;;0.50;0.20;;;;;;;27.61;67.04;100057.38;5005608;28;20474;-52
2023/09/11 10:22:46;;;;;;;0.50;0.20;;;;;;;27.30;68.42;100059.69;5004576;28;20496;-51
2023/09/11 10:25:12;;;;;;;0.70;0.50;;;;;;;27.20;68.46;100051.56;5005265;28;20448;-51
2023/09/11 10:27:40;;;;;;;0.50;0.27;;;;;;;27.52;67.06;100047.38;4999255;28;20458;-51
2023/09/11 10:30:12;;;;;;;1.27;1.27;;;;;;;27.74;65.86;100039.56;4998939;28;20475;-50
2023/09/11 10:32:59;;;;;;;0.50;0.20;;;;;;;27.49;66.11;100037.66;4999955;28;20452;-52
2023/09/11 10:35:30;;;;;;;0.50;0.30;;;;;;;27.70;64.31;100035.47;5002119;28;20444;-53
2023/09/11 10:37:58;;;;;;;0.50;0.27;;;;;;;27.91;62.79;100026.88;5007052;28;20898;-52
2023/09/11 10:40:29;;;;;;;0.50;0.20;;;;;;;27.89;65.13;100017.97;5010669;28;20556;-53
2023/09/11 10:42:57;;;;;;;0.50;0.30;;;;;;;28.01;64.00;100019.41;5008473;28;20842;-52
2023/09/11 10:45:32;;;;;;;0.90;0.90;;;;;;;28.11;63.43;100013.00;4996789;28;20457;-52
2023/09/11 10:47:59;;;;;;;0.50;0.27;;;;;;;28.32;63.74;100014.28;5014391;28;21013;-52
2023/09/11 10:50:37;;;;;;;0.50;0.30;;;;;;;28.35;62.93;100010.38;5003143;28;21116;-52
2023/09/11 10:53:07;;;;;;;0.50;0.20;;;;;;;28.14;62.34;100008.03;5002259;28;20841;-52
2023/09/11 10:55:35;;;;;;;0.50;0.30;;;;;;;28.31;61.01;100011.72;5023862;28;20486;-51
2023/09/11 10:58:06;;;;;;;0.50;0.50;;;;;;;28.52;61.69;100012.16;5016604;28;20547;-52
2023/09/11 11:00:37;;;;;;;0.50;0.30;;;;;;;28.93;60.60;100008.69;5005309;28;20603;-52
2023/09/11 11:03:07;;;;;;;0.50;0.30;;;;;;;28.60;59.66;100009.44;5002225;28;20491;-52
2023/09/11 11:05:34;;;;;;;0.50;0.30;;;;;;;28.79;60.76;100002.81;5004264;28;20456;-52
2023/09/11 11:08:01;;;;;;;0.50;0.30;;;;;;;28.67;60.27;100004.16;5011315;28;20460;-53
2023/09/11 11:10:28;;;;;;;0.50;0.30;;;;;;;29.02;58.36;99999.44;5015058;28;20475;-53
2023/09/11 11:13:05;;;;;;;0.50;0.30;;;;;;;29.22;54.61;100002.72;5001599;28;20455;-53
2023/09/11 11:15:33;;;;;;;0.50;0.37;;;;;;;29.44;54.08;100010.25;5001972;28;20511;-53
2023/09/11 11:18:11;;;;;;;0.50;0.20;;;;;;;29.53;54.93;100003.78;5008200;28;20500;-52
2023/09/11 11:21:00;;;;;;;0.50;0.30;;;;;;;29.90;54.83;99988.63;5008197;28;20832;-53
2023/09/11 11:23:32;;;;;;;0.50;0.40;;;;;;;29.79;53.50;99989.84;5007283;28;20520;-52
2023/09/11 11:26:10;;;;;;;0.50;0.30;;;;;;;29.69;51.56;99992.78;4995739;28;20450;-53